sensor_id;sensor_type;location;lat;lon;timestamp;P1;durP1;ratioP1;P2;durP2;ratioP2
77828;SDS011;67019;51.034;3.728;2023-02-03T00:01:02;24.12;;;6.70;;
77828;SDS011;67019;51.034;3.728;2023-02-03T00:03:30;20.52;;;5.17;;
77828;SDS011;67019;51.034;3.728;2023-02-03T00:05:58;11.80;;;5.12;;
77828;SDS011;67019;51.034;3.728;2023-02-03T00:08:27;23.87;;;5.35;;
77828;SDS011;67019;51.034;3.728;2023-02-03T00:10:55;10.28;;;4.03;;
77828;SDS011;67019;51.034;3.728;2023-02-03T00:13:24;22.40;;;5.37;;
77828;SDS011;67019;51.034;3.728;2023-02-03T00:16:00;14.95;;;5.55;;
77828;SDS011;67019;51.034;3.728;2023-02-03T00:18:26;13.45;;;5.28;;
77828;SDS011;67019;51.034;3.728;2023-02-03T00:20:53;16.27;;;5.00;;
77828;SDS011;67019;51.034;3.728;2023-02-03T00:23:24;15.60;;;5.03;;
77828;SDS011;67019;51.034;3.728;2023-02-03T00:25:53;19.23;;;3.92;;
77828;SDS011;67019;51.034;3.728;2023-02-03T00:28:22;12.35;;;4.35;;
77828;SDS011;67019;51.034;3.728;2023-02-03T00:30:56;14.07;;;4.47;;
77828;SDS011;67019;51.034;3.728;2023-02-03T00:33:24;15.78;;;4.28;;
77828;SDS011;67019;51.034;3.728;2023-02-03T00:35:51;12.73;;;4.17;;
77828;SDS011;67019;51.034;3.728;2023-02-03T00:38:19;11.08;;;3.33;;
77828;SDS011;67019;51.034;3.728;2023-02-03T00:40:51;9.45;;;3.15;;
77828;SDS011;67019;51.034;3.728;2023-02-03T00:43:20;16.45;;;4.17;;
77828;SDS011;67019;51.034;3.728;2023-02-03T00:45:47;16.40;;;3.42;;
77828;SDS011;67019;51.034;3.728;2023-02-03T00:48:15;12.93;;;3.10;;
77828;SDS011;67019;51.034;3.728;2023-02-03T00:50:45;13.15;;;3.20;;
77828;SDS011;67019;51.034;3.728;2023-02-03T00:53:16;11.50;;;2.90;;
77828;SDS011;67019;51.034;3.728;2023-02-03T00:55:43;13.48;;;3.33;;
77828;SDS011;67019;51.034;3.728;2023-02-03T00:58:11;12.73;;;3.05;;
77828;SDS011;67019;51.034;3.728;2023-02-03T01:00:39;5.85;;;2.42;;
77828;SDS011;67019;51.034;3.728;2023-02-03T01:03:09;10.30;;;2.92;;
77828;SDS011;67019;51.034;3.728;2023-02-03T01:08:05;10.98;;;2.75;;
77828;SDS011;67019;51.034;3.728;2023-02-03T01:10:33;13.20;;;2.92;;
77828;SDS011;67019;51.034;3.728;2023-02-03T01:13:02;15.75;;;2.35;;
77828;SDS011;67019;51.034;3.728;2023-02-03T01:15:31;18.15;;;4.33;;
77828;SDS011;67019;51.034;3.728;2023-02-03T01:18:00;9.50;;;3.15;;
77828;SDS011;67019;51.034;3.728;2023-02-03T01:20:28;13.13;;;5.42;;
77828;SDS011;67019;51.034;3.728;2023-02-03T01:22:56;10.25;;;2.37;;
77828;SDS011;67019;51.034;3.728;2023-02-03T01:25:23;22.37;;;3.30;;
77828;SDS011;67019;51.034;3.728;2023-02-03T01:27:51;13.68;;;4.12;;
77828;SDS011;67019;51.034;3.728;2023-02-03T01:30:18;12.60;;;2.42;;
77828;SDS011;67019;51.034;3.728;2023-02-03T01:32:46;6.30;;;2.20;;
77828;SDS011;67019;51.034;3.728;2023-02-03T01:35:14;6.37;;;2.30;;
77828;SDS011;67019;51.034;3.728;2023-02-03T01:37:41;15.68;;;2.90;;
77828;SDS011;67019;51.034;3.728;2023-02-03T01:40:09;12.30;;;2.55;;
77828;SDS011;67019;51.034;3.728;2023-02-03T01:42:37;12.88;;;2.20;;
77828;SDS011;67019;51.034;3.728;2023-02-03T01:45:05;12.00;;;2.92;;
77828;SDS011;67019;51.034;3.728;2023-02-03T01:47:35;20.90;;;4.67;;
77828;SDS011;67019;51.034;3.728;2023-02-03T01:52:38;16.48;;;3.75;;
77828;SDS011;67019;51.034;3.728;2023-02-03T01:57:42;14.20;;;2.35;;
77828;SDS011;67019;51.034;3.728;2023-02-03T02:00:09;7.08;;;2.30;;
77828;SDS011;67019;51.034;3.728;2023-02-03T02:02:37;14.58;;;1.90;;
77828;SDS011;67019;51.034;3.728;2023-02-03T02:05:08;9.30;;;2.25;;
77828;SDS011;67019;51.034;3.728;2023-02-03T02:07:42;9.70;;;2.98;;
77828;SDS011;67019;51.034;3.728;2023-02-03T02:10:11;8.28;;;2.00;;
77828;SDS011;67019;51.034;3.728;2023-02-03T02:12:39;11.03;;;2.15;;
77828;SDS011;67019;51.034;3.728;2023-02-03T02:15:07;16.77;;;3.77;;
77828;SDS011;67019;51.034;3.728;2023-02-03T02:26:15;5.83;;;1.90;;
77828;SDS011;67019;51.034;3.728;2023-02-03T02:37:01;10.28;;;2.67;;
77828;SDS011;67019;51.034;3.728;2023-02-03T02:39:47;18.57;;;2.45;;
77828;SDS011;67019;51.034;3.728;2023-02-03T02:45:29;11.78;;;2.12;;
77828;SDS011;67019;51.034;3.728;2023-02-03T02:50:48;10.55;;;2.52;;
77828;SDS011;67019;51.034;3.728;2023-02-03T02:53:19;9.80;;;2.72;;
77828;SDS011;67019;51.034;3.728;2023-02-03T02:55:49;11.78;;;1.62;;
77828;SDS011;67019;51.034;3.728;2023-02-03T02:58:19;3.83;;;2.25;;
77828;SDS011;67019;51.034;3.728;2023-02-03T03:00:47;9.20;;;2.05;;
77828;SDS011;67019;51.034;3.728;2023-02-03T03:03:17;10.82;;;2.35;;
77828;SDS011;67019;51.034;3.728;2023-02-03T03:06:06;13.53;;;2.80;;
77828;SDS011;67019;51.034;3.728;2023-02-03T03:08:21;9.30;;;2.20;;
77828;SDS011;67019;51.034;3.728;2023-02-03T03:13:21;10.40;;;2.12;;
77828;SDS011;67019;51.034;3.728;2023-02-03T03:15:49;5.65;;;1.65;;
77828;SDS011;67019;51.034;3.728;2023-02-03T03:18:23;3.62;;;1.62;;
77828;SDS011;67019;51.034;3.728;2023-02-03T03:20:52;5.97;;;2.15;;
77828;SDS011;67019;51.034;3.728;2023-02-03T03:23:26;4.67;;;1.47;;
77828;SDS011;67019;51.034;3.728;2023-02-03T03:25:59;9.18;;;1.57;;
77828;SDS011;67019;51.034;3.728;2023-02-03T03:28:42;8.25;;;1.80;;
77828;SDS011;67019;51.034;3.728;2023-02-03T03:31:19;13.48;;;2.50;;
77828;SDS011;67019;51.034;3.728;2023-02-03T03:33:44;5.12;;;1.25;;
77828;SDS011;67019;51.034;3.728;2023-02-03T03:39:04;5.62;;;1.17;;
77828;SDS011;67019;51.034;3.728;2023-02-03T03:46:41;6.47;;;1.47;;
77828;SDS011;67019;51.034;3.728;2023-02-03T03:49:09;8.00;;;1.72;;
77828;SDS011;67019;51.034;3.728;2023-02-03T03:51:43;5.62;;;2.05;;
77828;SDS011;67019;51.034;3.728;2023-02-03T03:54:19;5.37;;;1.10;;
77828;SDS011;67019;51.034;3.728;2023-02-03T03:59:26;5.58;;;1.72;;
77828;SDS011;67019;51.034;3.728;2023-02-03T04:04:23;4.42;;;1.67;;
77828;SDS011;67019;51.034;3.728;2023-02-03T04:06:52;7.60;;;1.60;;
77828;SDS011;67019;51.034;3.728;2023-02-03T04:09:20;3.62;;;1.30;;
77828;SDS011;67019;51.034;3.728;2023-02-03T04:11:48;5.35;;;1.05;;
77828;SDS011;67019;51.034;3.728;2023-02-03T04:14:27;41.42;;;6.37;;
77828;SDS011;67019;51.034;3.728;2023-02-03T04:16:56;7.45;;;1.57;;
77828;SDS011;67019;51.034;3.728;2023-02-03T04:19:25;4.75;;;1.80;;
77828;SDS011;67019;51.034;3.728;2023-02-03T04:21:54;9.60;;;2.17;;
77828;SDS011;67019;51.034;3.728;2023-02-03T04:24:21;5.87;;;1.45;;
77828;SDS011;67019;51.034;3.728;2023-02-03T04:26:50;12.55;;;1.90;;
77828;SDS011;67019;51.034;3.728;2023-02-03T04:29:18;8.08;;;1.72;;
77828;SDS011;67019;51.034;3.728;2023-02-03T04:31:45;3.70;;;1.17;;
77828;SDS011;67019;51.034;3.728;2023-02-03T04:34:13;6.85;;;2.17;;
77828;SDS011;67019;51.034;3.728;2023-02-03T04:36:41;7.12;;;1.60;;
77828;SDS011;67019;51.034;3.728;2023-02-03T04:39:09;7.30;;;1.35;;
77828;SDS011;67019;51.034;3.728;2023-02-03T04:41:36;2.25;;;1.00;;
77828;SDS011;67019;51.034;3.728;2023-02-03T04:44:04;5.90;;;1.30;;
77828;SDS011;67019;51.034;3.728;2023-02-03T04:46:31;3.87;;;1.50;;
77828;SDS011;67019;51.034;3.728;2023-02-03T04:49:00;11.28;;;2.17;;
77828;SDS011;67019;51.034;3.728;2023-02-03T04:51:27;4.92;;;1.85;;
77828;SDS011;67019;51.034;3.728;2023-02-03T04:53:55;14.25;;;2.12;;
77828;SDS011;67019;51.034;3.728;2023-02-03T04:56:23;9.53;;;1.67;;
77828;SDS011;67019;51.034;3.728;2023-02-03T04:58:50;6.67;;;1.47;;
77828;SDS011;67019;51.034;3.728;2023-02-03T05:01:18;4.37;;;1.52;;
77828;SDS011;67019;51.034;3.728;2023-02-03T05:03:45;9.83;;;2.25;;
77828;SDS011;67019;51.034;3.728;2023-02-03T05:06:13;11.85;;;2.17;;
77828;SDS011;67019;51.034;3.728;2023-02-03T05:08:40;10.70;;;3.17;;
77828;SDS011;67019;51.034;3.728;2023-02-03T05:11:08;3.95;;;1.45;;
77828;SDS011;67019;51.034;3.728;2023-02-03T05:13:36;8.05;;;1.80;;
77828;SDS011;67019;51.034;3.728;2023-02-03T05:16:04;6.85;;;1.65;;
77828;SDS011;67019;51.034;3.728;2023-02-03T05:18:32;5.33;;;1.60;;
77828;SDS011;67019;51.034;3.728;2023-02-03T05:20:59;7.90;;;1.92;;
77828;SDS011;67019;51.034;3.728;2023-02-03T05:23:33;5.53;;;1.50;;
77828;SDS011;67019;51.034;3.728;2023-02-03T05:26:00;8.13;;;1.62;;
77828;SDS011;67019;51.034;3.728;2023-02-03T05:28:28;10.70;;;1.70;;
77828;SDS011;67019;51.034;3.728;2023-02-03T05:30:59;7.58;;;1.22;;
77828;SDS011;67019;51.034;3.728;2023-02-03T05:33:27;5.08;;;1.40;;
77828;SDS011;67019;51.034;3.728;2023-02-03T05:35:55;7.65;;;1.37;;
77828;SDS011;67019;51.034;3.728;2023-02-03T05:38:23;8.93;;;2.10;;
77828;SDS011;67019;51.034;3.728;2023-02-03T05:40:52;8.15;;;1.27;;
77828;SDS011;67019;51.034;3.728;2023-02-03T05:43:37;13.65;;;2.50;;
77828;SDS011;67019;51.034;3.728;2023-02-03T05:46:07;4.17;;;1.50;;
77828;SDS011;67019;51.034;3.728;2023-02-03T05:48:34;5.03;;;0.80;;
77828;SDS011;67019;51.034;3.728;2023-02-03T05:51:02;8.00;;;3.47;;
77828;SDS011;67019;51.034;3.728;2023-02-03T05:53:30;10.85;;;1.95;;
77828;SDS011;67019;51.034;3.728;2023-02-03T05:55:57;7.80;;;1.45;;
77828;SDS011;67019;51.034;3.728;2023-02-03T05:58:26;11.48;;;1.95;;
77828;SDS011;67019;51.034;3.728;2023-02-03T06:00:53;7.78;;;1.27;;
77828;SDS011;67019;51.034;3.728;2023-02-03T06:03:21;7.15;;;2.47;;
77828;SDS011;67019;51.034;3.728;2023-02-03T06:05:49;6.75;;;1.80;;
77828;SDS011;67019;51.034;3.728;2023-02-03T06:08:17;8.68;;;1.55;;
77828;SDS011;67019;51.034;3.728;2023-02-03T06:10:44;10.10;;;2.08;;
77828;SDS011;67019;51.034;3.728;2023-02-03T06:13:13;5.83;;;1.15;;
77828;SDS011;67019;51.034;3.728;2023-02-03T06:15:41;6.97;;;1.30;;
77828;SDS011;67019;51.034;3.728;2023-02-03T06:18:09;9.48;;;3.52;;
77828;SDS011;67019;51.034;3.728;2023-02-03T06:20:37;4.30;;;1.17;;
77828;SDS011;67019;51.034;3.728;2023-02-03T06:23:05;8.05;;;1.42;;
77828;SDS011;67019;51.034;3.728;2023-02-03T06:25:33;5.62;;;1.92;;
77828;SDS011;67019;51.034;3.728;2023-02-03T06:28:00;4.90;;;1.85;;
77828;SDS011;67019;51.034;3.728;2023-02-03T06:30:28;5.67;;;1.35;;
77828;SDS011;67019;51.034;3.728;2023-02-03T06:32:56;5.15;;;1.50;;
77828;SDS011;67019;51.034;3.728;2023-02-03T06:35:24;8.18;;;1.65;;
77828;SDS011;67019;51.034;3.728;2023-02-03T06:37:53;10.03;;;1.47;;
77828;SDS011;67019;51.034;3.728;2023-02-03T06:40:23;13.08;;;2.30;;
77828;SDS011;67019;51.034;3.728;2023-02-03T06:42:50;9.28;;;1.67;;
77828;SDS011;67019;51.034;3.728;2023-02-03T06:45:20;8.43;;;1.60;;
77828;SDS011;67019;51.034;3.728;2023-02-03T06:47:49;11.65;;;1.77;;
77828;SDS011;67019;51.034;3.728;2023-02-03T06:50:18;8.73;;;2.42;;
77828;SDS011;67019;51.034;3.728;2023-02-03T06:52:48;6.30;;;1.37;;
77828;SDS011;67019;51.034;3.728;2023-02-03T06:55:16;6.60;;;1.77;;
77828;SDS011;67019;51.034;3.728;2023-02-03T06:57:44;3.98;;;1.57;;
77828;SDS011;67019;51.034;3.728;2023-02-03T07:00:13;4.45;;;2.22;;
77828;SDS011;67019;51.034;3.728;2023-02-03T07:02:42;6.97;;;1.32;;
77828;SDS011;67019;51.034;3.728;2023-02-03T07:05:11;5.95;;;1.42;;
77828;SDS011;67019;51.034;3.728;2023-02-03T07:07:39;7.67;;;1.90;;
77828;SDS011;67019;51.034;3.728;2023-02-03T07:10:09;6.65;;;2.58;;
77828;SDS011;67019;51.034;3.728;2023-02-03T07:12:36;8.45;;;2.27;;
77828;SDS011;67019;51.034;3.728;2023-02-03T07:15:05;7.10;;;1.70;;
77828;SDS011;67019;51.034;3.728;2023-02-03T07:17:33;7.97;;;1.47;;
77828;SDS011;67019;51.034;3.728;2023-02-03T07:20:01;11.20;;;2.37;;
77828;SDS011;67019;51.034;3.728;2023-02-03T07:22:29;11.03;;;1.32;;
77828;SDS011;67019;51.034;3.728;2023-02-03T07:24:57;7.62;;;1.72;;
77828;SDS011;67019;51.034;3.728;2023-02-03T07:27:25;4.53;;;1.85;;
77828;SDS011;67019;51.034;3.728;2023-02-03T07:29:54;7.45;;;2.05;;
77828;SDS011;67019;51.034;3.728;2023-02-03T07:32:27;5.62;;;2.62;;
77828;SDS011;67019;51.034;3.728;2023-02-03T07:34:51;12.63;;;1.85;;
77828;SDS011;67019;51.034;3.728;2023-02-03T07:37:20;6.30;;;2.10;;
77828;SDS011;67019;51.034;3.728;2023-02-03T07:39:48;12.43;;;1.50;;
77828;SDS011;67019;51.034;3.728;2023-02-03T07:42:15;9.55;;;1.95;;
77828;SDS011;67019;51.034;3.728;2023-02-03T07:44:43;7.42;;;1.75;;
77828;SDS011;67019;51.034;3.728;2023-02-03T07:47:12;6.37;;;1.77;;
77828;SDS011;67019;51.034;3.728;2023-02-03T07:49:40;5.15;;;1.60;;
77828;SDS011;67019;51.034;3.728;2023-02-03T07:52:08;7.65;;;1.80;;
77828;SDS011;67019;51.034;3.728;2023-02-03T07:54:35;9.18;;;1.25;;
77828;SDS011;67019;51.034;3.728;2023-02-03T07:57:03;6.90;;;1.72;;
77828;SDS011;67019;51.034;3.728;2023-02-03T07:59:31;9.93;;;1.85;;
77828;SDS011;67019;51.034;3.728;2023-02-03T08:01:58;4.42;;;1.70;;
77828;SDS011;67019;51.034;3.728;2023-02-03T08:04:26;3.22;;;2.20;;
77828;SDS011;67019;51.034;3.728;2023-02-03T08:06:54;5.58;;;1.50;;
77828;SDS011;67019;51.034;3.728;2023-02-03T08:09:21;6.12;;;2.50;;
77828;SDS011;67019;51.034;3.728;2023-02-03T08:11:49;6.90;;;1.50;;
77828;SDS011;67019;51.034;3.728;2023-02-03T08:14:17;5.20;;;1.85;;
77828;SDS011;67019;51.034;3.728;2023-02-03T08:16:46;10.98;;;1.95;;
77828;SDS011;67019;51.034;3.728;2023-02-03T08:19:13;3.60;;;2.30;;
77828;SDS011;67019;51.034;3.728;2023-02-03T08:21:41;4.08;;;1.60;;
77828;SDS011;67019;51.034;3.728;2023-02-03T08:24:09;9.18;;;2.30;;
77828;SDS011;67019;51.034;3.728;2023-02-03T08:26:36;7.97;;;3.35;;
77828;SDS011;67019;51.034;3.728;2023-02-03T08:29:04;7.72;;;2.25;;
77828;SDS011;67019;51.034;3.728;2023-02-03T08:31:32;7.55;;;1.77;;
77828;SDS011;67019;51.034;3.728;2023-02-03T08:34:00;6.80;;;1.90;;
77828;SDS011;67019;51.034;3.728;2023-02-03T08:36:27;3.55;;;1.98;;
77828;SDS011;67019;51.034;3.728;2023-02-03T08:38:55;4.42;;;1.50;;
77828;SDS011;67019;51.034;3.728;2023-02-03T08:41:23;9.48;;;2.33;;
77828;SDS011;67019;51.034;3.728;2023-02-03T08:43:50;12.07;;;1.87;;
77828;SDS011;67019;51.034;3.728;2023-02-03T08:46:18;6.05;;;2.17;;
77828;SDS011;67019;51.034;3.728;2023-02-03T08:48:46;6.37;;;1.95;;
77828;SDS011;67019;51.034;3.728;2023-02-03T08:51:15;15.95;;;2.50;;
77828;SDS011;67019;51.034;3.728;2023-02-03T08:53:44;10.15;;;2.77;;
77828;SDS011;67019;51.034;3.728;2023-02-03T08:56:11;5.72;;;1.80;;
77828;SDS011;67019;51.034;3.728;2023-02-03T08:58:39;5.15;;;2.17;;
77828;SDS011;67019;51.034;3.728;2023-02-03T09:01:12;7.78;;;2.60;;
77828;SDS011;67019;51.034;3.728;2023-02-03T09:03:37;11.73;;;3.30;;
77828;SDS011;67019;51.034;3.728;2023-02-03T09:06:05;5.20;;;1.82;;
77828;SDS011;67019;51.034;3.728;2023-02-03T09:08:36;8.80;;;1.98;;
77828;SDS011;67019;51.034;3.728;2023-02-03T09:11:08;9.45;;;2.27;;
77828;SDS011;67019;51.034;3.728;2023-02-03T09:13:36;9.65;;;2.58;;
77828;SDS011;67019;51.034;3.728;2023-02-03T09:16:06;10.40;;;2.80;;
77828;SDS011;67019;51.034;3.728;2023-02-03T09:18:34;7.72;;;2.12;;
77828;SDS011;67019;51.034;3.728;2023-02-03T09:21:02;9.40;;;2.83;;
77828;SDS011;67019;51.034;3.728;2023-02-03T09:23:30;12.70;;;3.47;;
77828;SDS011;67019;51.034;3.728;2023-02-03T09:26:01;10.90;;;3.92;;
77828;SDS011;67019;51.034;3.728;2023-02-03T09:28:30;4.40;;;2.12;;
77828;SDS011;67019;51.034;3.728;2023-02-03T09:31:05;8.80;;;2.98;;
77828;SDS011;67019;51.034;3.728;2023-02-03T09:33:31;5.70;;;2.27;;
77828;SDS011;67019;51.034;3.728;2023-02-03T09:35:59;10.48;;;2.60;;
77828;SDS011;67019;51.034;3.728;2023-02-03T09:38:27;13.43;;;2.90;;
77828;SDS011;67019;51.034;3.728;2023-02-03T09:40:57;16.30;;;2.75;;
77828;SDS011;67019;51.034;3.728;2023-02-03T09:43:29;8.25;;;2.40;;
77828;SDS011;67019;51.034;3.728;2023-02-03T09:48:29;26.02;;;4.85;;
77828;SDS011;67019;51.034;3.728;2023-02-03T09:53:27;13.65;;;2.22;;
77828;SDS011;67019;51.034;3.728;2023-02-03T09:55:58;5.78;;;1.98;;
77828;SDS011;67019;51.034;3.728;2023-02-03T09:58:26;4.47;;;1.90;;
77828;SDS011;67019;51.034;3.728;2023-02-03T10:00:56;3.42;;;1.80;;
77828;SDS011;67019;51.034;3.728;2023-02-03T10:03:44;6.75;;;2.37;;
77828;SDS011;67019;51.034;3.728;2023-02-03T10:06:32;12.25;;;2.42;;
77828;SDS011;67019;51.034;3.728;2023-02-03T10:09:18;6.12;;;1.60;;
77828;SDS011;67019;51.034;3.728;2023-02-03T10:12:03;8.13;;;1.80;;
77828;SDS011;67019;51.034;3.728;2023-02-03T10:14:35;8.05;;;2.33;;
77828;SDS011;67019;51.034;3.728;2023-02-03T10:17:25;14.73;;;2.75;;
77828;SDS011;67019;51.034;3.728;2023-02-03T10:22:41;3.70;;;2.20;;
77828;SDS011;67019;51.034;3.728;2023-02-03T10:27:45;6.20;;;2.12;;
77828;SDS011;67019;51.034;3.728;2023-02-03T10:30:21;13.35;;;2.98;;
77828;SDS011;67019;51.034;3.728;2023-02-03T10:32:53;5.37;;;2.20;;
77828;SDS011;67019;51.034;3.728;2023-02-03T10:35:39;7.58;;;2.22;;
77828;SDS011;67019;51.034;3.728;2023-02-03T10:40:35;11.18;;;3.05;;
77828;SDS011;67019;51.034;3.728;2023-02-03T10:43:03;9.23;;;2.10;;
77828;SDS011;67019;51.034;3.728;2023-02-03T10:45:48;10.08;;;3.27;;
77828;SDS011;67019;51.034;3.728;2023-02-03T10:48:16;6.80;;;1.72;;
77828;SDS011;67019;51.034;3.728;2023-02-03T10:50:46;10.20;;;3.20;;
77828;SDS011;67019;51.034;3.728;2023-02-03T10:56:04;5.20;;;2.17;;
77828;SDS011;67019;51.034;3.728;2023-02-03T10:58:37;12.35;;;2.17;;
77828;SDS011;67019;51.034;3.728;2023-02-03T11:01:08;7.72;;;2.15;;
77828;SDS011;67019;51.034;3.728;2023-02-03T11:03:36;13.60;;;3.75;;
77828;SDS011;67019;51.034;3.728;2023-02-03T11:06:08;9.20;;;2.30;;
77828;SDS011;67019;51.034;3.728;2023-02-03T11:08:38;6.62;;;2.70;;
77828;SDS011;67019;51.034;3.728;2023-02-03T11:11:12;4.87;;;2.50;;
77828;SDS011;67019;51.034;3.728;2023-02-03T11:13:42;8.03;;;2.47;;
77828;SDS011;67019;51.034;3.728;2023-02-03T11:18:45;11.08;;;2.92;;
77828;SDS011;67019;51.034;3.728;2023-02-03T11:24:02;6.10;;;2.40;;
77828;SDS011;67019;51.034;3.728;2023-02-03T11:26:55;25.08;;;5.22;;
77828;SDS011;67019;51.034;3.728;2023-02-03T11:29:35;7.12;;;2.00;;
77828;SDS011;67019;51.034;3.728;2023-02-03T11:32:05;15.72;;;3.02;;
77828;SDS011;67019;51.034;3.728;2023-02-03T11:34:45;7.30;;;2.40;;
77828;SDS011;67019;51.034;3.728;2023-02-03T11:37:25;6.55;;;2.60;;
77828;SDS011;67019;51.034;3.728;2023-02-03T11:42:38;6.83;;;2.58;;
77828;SDS011;67019;51.034;3.728;2023-02-03T11:47:57;7.90;;;2.15;;
77828;SDS011;67019;51.034;3.728;2023-02-03T12:02:05;5.85;;;1.90;;
77828;SDS011;67019;51.034;3.728;2023-02-03T12:10:21;5.05;;;1.35;;
77828;SDS011;67019;51.034;3.728;2023-02-03T12:18:19;8.08;;;1.60;;
77828;SDS011;67019;51.034;3.728;2023-02-03T12:23:40;4.47;;;1.98;;
77828;SDS011;67019;51.034;3.728;2023-02-03T12:26:25;5.10;;;1.37;;
77828;SDS011;67019;51.034;3.728;2023-02-03T12:31:38;6.72;;;1.60;;
77828;SDS011;67019;51.034;3.728;2023-02-03T12:34:22;5.47;;;1.40;;
77828;SDS011;67019;51.034;3.728;2023-02-03T12:40:14;6.58;;;1.47;;
77828;SDS011;67019;51.034;3.728;2023-02-03T12:42:46;9.28;;;1.75;;
77828;SDS011;67019;51.034;3.728;2023-02-03T12:45:21;5.72;;;1.60;;
77828;SDS011;67019;51.034;3.728;2023-02-03T12:48:11;4.33;;;1.60;;
77828;SDS011;67019;51.034;3.728;2023-02-03T12:50:43;4.47;;;1.75;;
77828;SDS011;67019;51.034;3.728;2023-02-03T12:55:45;4.72;;;1.20;;
77828;SDS011;67019;51.034;3.728;2023-02-03T12:58:29;3.47;;;1.32;;
77828;SDS011;67019;51.034;3.728;2023-02-03T13:03:50;3.12;;;1.52;;
77828;SDS011;67019;51.034;3.728;2023-02-03T13:11:46;4.70;;;1.80;;
77828;SDS011;67019;51.034;3.728;2023-02-03T13:16:54;6.80;;;1.67;;
77828;SDS011;67019;51.034;3.728;2023-02-03T13:19:52;4.78;;;1.30;;
77828;SDS011;67019;51.034;3.728;2023-02-03T13:22:17;8.60;;;1.85;;
77828;SDS011;67019;51.034;3.728;2023-02-03T13:25:01;1.95;;;1.12;;
77828;SDS011;67019;51.034;3.728;2023-02-03T13:35:22;11.25;;;2.90;;
77828;SDS011;67019;51.034;3.728;2023-02-03T13:40:58;5.55;;;1.52;;
77828;SDS011;67019;51.034;3.728;2023-02-03T13:43:30;10.00;;;1.70;;
77828;SDS011;67019;51.034;3.728;2023-02-03T13:45:59;3.30;;;1.55;;
77828;SDS011;67019;51.034;3.728;2023-02-03T13:48:28;3.05;;;1.45;;
77828;SDS011;67019;51.034;3.728;2023-02-03T13:51:12;6.42;;;1.30;;
77828;SDS011;67019;51.034;3.728;2023-02-03T13:53:42;4.35;;;1.65;;
77828;SDS011;67019;51.034;3.728;2023-02-03T13:56:16;3.40;;;1.30;;
77828;SDS011;67019;51.034;3.728;2023-02-03T13:58:57;5.03;;;1.57;;
77828;SDS011;67019;51.034;3.728;2023-02-03T14:01:35;14.33;;;2.45;;
77828;SDS011;67019;51.034;3.728;2023-02-03T14:04:05;5.33;;;1.72;;
77828;SDS011;67019;51.034;3.728;2023-02-03T14:09:21;5.12;;;2.83;;
77828;SDS011;67019;51.034;3.728;2023-02-03T14:20:31;13.13;;;2.77;;
77828;SDS011;67019;51.034;3.728;2023-02-03T14:25:45;3.10;;;1.60;;
77828;SDS011;67019;51.034;3.728;2023-02-03T14:28:15;2.27;;;1.65;;
77828;SDS011;67019;51.034;3.728;2023-02-03T14:33:43;8.60;;;2.00;;
77828;SDS011;67019;51.034;3.728;2023-02-03T14:38:28;5.08;;;2.00;;
77828;SDS011;67019;51.034;3.728;2023-02-03T14:43:26;8.30;;;1.75;;
77828;SDS011;67019;51.034;3.728;2023-02-03T14:48:47;5.05;;;1.72;;
77828;SDS011;67019;51.034;3.728;2023-02-03T14:57:09;3.65;;;1.95;;
77828;SDS011;67019;51.034;3.728;2023-02-03T14:59:44;5.25;;;2.00;;
77828;SDS011;67019;51.034;3.728;2023-02-03T15:07:48;7.00;;;2.37;;
77828;SDS011;67019;51.034;3.728;2023-02-03T15:10:18;6.72;;;1.57;;
77828;SDS011;67019;51.034;3.728;2023-02-03T15:12:48;8.93;;;1.92;;
77828;SDS011;67019;51.034;3.728;2023-02-03T15:15:20;4.80;;;1.82;;
77828;SDS011;67019;51.034;3.728;2023-02-03T15:23:19;5.87;;;2.30;;
77828;SDS011;67019;51.034;3.728;2023-02-03T15:25:54;6.92;;;2.15;;
77828;SDS011;67019;51.034;3.728;2023-02-03T15:28:26;6.50;;;2.10;;
77828;SDS011;67019;51.034;3.728;2023-02-03T15:33:47;6.85;;;2.05;;
77828;SDS011;67019;51.034;3.728;2023-02-03T15:36:18;8.73;;;2.50;;
77828;SDS011;67019;51.034;3.728;2023-02-03T15:39:36;6.00;;;2.17;;
77828;SDS011;67019;51.034;3.728;2023-02-03T15:41:33;7.03;;;3.08;;
77828;SDS011;67019;51.034;3.728;2023-02-03T15:44:05;6.05;;;2.58;;
77828;SDS011;67019;51.034;3.728;2023-02-03T15:46:41;5.75;;;1.98;;
77828;SDS011;67019;51.034;3.728;2023-02-03T15:49:15;14.07;;;2.92;;
77828;SDS011;67019;51.034;3.728;2023-02-03T15:51:51;11.50;;;2.33;;
77828;SDS011;67019;51.034;3.728;2023-02-03T15:54:29;6.47;;;2.22;;
77828;SDS011;67019;51.034;3.728;2023-02-03T15:57:03;8.73;;;3.15;;
77828;SDS011;67019;51.034;3.728;2023-02-03T15:59:48;3.33;;;2.10;;
77828;SDS011;67019;51.034;3.728;2023-02-03T16:04:43;4.03;;;2.50;;
77828;SDS011;67019;51.034;3.728;2023-02-03T16:07:27;3.08;;;2.30;;
77828;SDS011;67019;51.034;3.728;2023-02-03T16:09:56;5.92;;;3.25;;
77828;SDS011;67019;51.034;3.728;2023-02-03T16:14:56;12.28;;;2.85;;
77828;SDS011;67019;51.034;3.728;2023-02-03T16:17:26;3.42;;;2.17;;
77828;SDS011;67019;51.034;3.728;2023-02-03T16:25:31;4.30;;;3.03;;
77828;SDS011;67019;51.034;3.728;2023-02-03T16:28:12;20.90;;;3.70;;
77828;SDS011;67019;51.034;3.728;2023-02-03T16:30:59;10.70;;;3.72;;
77828;SDS011;67019;51.034;3.728;2023-02-03T16:34:04;9.55;;;3.27;;
77828;SDS011;67019;51.034;3.728;2023-02-03T16:36:59;4.55;;;3.17;;
77828;SDS011;67019;51.034;3.728;2023-02-03T16:39:44;6.55;;;2.85;;
77828;SDS011;67019;51.034;3.728;2023-02-03T16:42:37;11.25;;;3.37;;
77828;SDS011;67019;51.034;3.728;2023-02-03T16:45:27;7.22;;;3.42;;
77828;SDS011;67019;51.034;3.728;2023-02-03T16:51:54;9.03;;;3.50;;
77828;SDS011;67019;51.034;3.728;2023-02-03T16:57:04;6.20;;;2.75;;
77828;SDS011;67019;51.034;3.728;2023-02-03T16:59:32;9.58;;;3.33;;
77828;SDS011;67019;51.034;3.728;2023-02-03T17:01:59;5.80;;;3.10;;
77828;SDS011;67019;51.034;3.728;2023-02-03T17:04:27;10.75;;;3.08;;
77828;SDS011;67019;51.034;3.728;2023-02-03T17:06:54;11.45;;;4.17;;
77828;SDS011;67019;51.034;3.728;2023-02-03T17:09:22;9.25;;;2.90;;
77828;SDS011;67019;51.034;3.728;2023-02-03T17:11:50;9.13;;;3.62;;
77828;SDS011;67019;51.034;3.728;2023-02-03T17:14:18;8.18;;;3.50;;
77828;SDS011;67019;51.034;3.728;2023-02-03T17:16:47;7.50;;;3.72;;
77828;SDS011;67019;51.034;3.728;2023-02-03T17:19:18;15.83;;;4.22;;
77828;SDS011;67019;51.034;3.728;2023-02-03T17:21:45;9.85;;;3.95;;
77828;SDS011;67019;51.034;3.728;2023-02-03T17:24:14;7.55;;;4.00;;
77828;SDS011;67019;51.034;3.728;2023-02-03T17:26:42;9.43;;;3.65;;
77828;SDS011;67019;51.034;3.728;2023-02-03T17:29:11;7.28;;;3.77;;
77828;SDS011;67019;51.034;3.728;2023-02-03T17:31:40;5.87;;;3.77;;
77828;SDS011;67019;51.034;3.728;2023-02-03T17:34:07;11.65;;;4.53;;
77828;SDS011;67019;51.034;3.728;2023-02-03T17:36:36;9.48;;;4.20;;
77828;SDS011;67019;51.034;3.728;2023-02-03T17:39:03;9.35;;;3.42;;
77828;SDS011;67019;51.034;3.728;2023-02-03T17:41:31;13.20;;;3.33;;
77828;SDS011;67019;51.034;3.728;2023-02-03T17:43:59;9.40;;;4.15;;
77828;SDS011;67019;51.034;3.728;2023-02-03T17:46:28;6.12;;;3.60;;
77828;SDS011;67019;51.034;3.728;2023-02-03T17:48:55;10.78;;;4.28;;
77828;SDS011;67019;51.034;3.728;2023-02-03T17:51:23;12.95;;;4.75;;
77828;SDS011;67019;51.034;3.728;2023-02-03T17:53:54;12.65;;;5.00;;
77828;SDS011;67019;51.034;3.728;2023-02-03T17:56:24;8.73;;;4.15;;
77828;SDS011;67019;51.034;3.728;2023-02-03T17:58:56;13.50;;;4.28;;
77828;SDS011;67019;51.034;3.728;2023-02-03T18:01:25;8.85;;;3.95;;
77828;SDS011;67019;51.034;3.728;2023-02-03T18:03:55;10.82;;;4.30;;
77828;SDS011;67019;51.034;3.728;2023-02-03T18:06:24;12.90;;;5.50;;
77828;SDS011;67019;51.034;3.728;2023-02-03T18:08:54;12.68;;;5.42;;
77828;SDS011;67019;51.034;3.728;2023-02-03T18:11:26;9.13;;;4.78;;
77828;SDS011;67019;51.034;3.728;2023-02-03T18:13:56;11.37;;;5.03;;